sensor_id;sensor_type;location;lat;lon;timestamp;P1;durP1;ratioP1;P2;durP2;ratioP2
20336;SDS011;10326;53.660;10.200;2024-03-23T00:55:43;18.10;;;4.03;;
20336;SDS011;10326;53.660;10.200;2024-03-23T00:58:09;19.77;;;4.72;;
20336;SDS011;10326;53.660;10.200;2024-03-23T01:00:36;17.70;;;5.03;;
20336;SDS011;10326;53.660;10.200;2024-03-23T01:03:02;19.73;;;5.20;;
20336;SDS011;10326;53.660;10.200;2024-03-23T01:05:30;18.10;;;3.95;;
20336;SDS011;10326;53.660;10.200;2024-03-23T01:07:56;16.48;;;3.83;;
20336;SDS011;10326;53.660;10.200;2024-03-23T01:10:23;17.50;;;4.30;;
20336;SDS011;10326;53.660;10.200;2024-03-23T01:12:50;17.42;;;3.90;;
20336;SDS011;10326;53.660;10.200;2024-03-23T01:15:17;22.77;;;4.10;;
20336;SDS011;10326;53.660;10.200;2024-03-23T01:17:43;15.63;;;3.92;;
20336;SDS011;10326;53.660;10.200;2024-03-23T01:20:10;16.38;;;4.22;;
20336;SDS011;10326;53.660;10.200;2024-03-23T01:22:36;19.00;;;4.60;;
20336;SDS011;10326;53.660;10.200;2024-03-23T01:25:03;17.00;;;4.75;;
20336;SDS011;10326;53.660;10.200;2024-03-23T01:27:30;19.58;;;5.47;;
20336;SDS011;10326;53.660;10.200;2024-03-23T01:29:59;20.77;;;5.10;;
20336;SDS011;10326;53.660;10.200;2024-03-23T01:32:25;21.73;;;4.57;;
20336;SDS011;10326;53.660;10.200;2024-03-23T01:34:52;16.23;;;4.72;;
20336;SDS011;10326;53.660;10.200;2024-03-23T01:37:17;18.50;;;4.22;;
20336;SDS011;10326;53.660;10.200;2024-03-23T01:39:45;19.83;;;4.20;;
20336;SDS011;10326;53.660;10.200;2024-03-23T01:42:10;13.27;;;3.92;;
20336;SDS011;10326;53.660;10.200;2024-03-23T01:44:37;14.90;;;4.18;;
20336;SDS011;10326;53.660;10.200;2024-03-23T01:47:05;16.83;;;4.25;;
20336;SDS011;10326;53.660;10.200;2024-03-23T01:49:33;16.00;;;4.38;;
20336;SDS011;10326;53.660;10.200;2024-03-23T01:51:59;14.38;;;3.80;;
20336;SDS011;10326;53.660;10.200;2024-03-23T01:54:27;18.83;;;4.70;;
20336;SDS011;10326;53.660;10.200;2024-03-23T01:56:54;17.17;;;4.53;;
20336;SDS011;10326;53.660;10.200;2024-03-23T01:59:23;18.63;;;4.53;;
20336;SDS011;10326;53.660;10.200;2024-03-23T02:01:49;19.20;;;4.80;;
20336;SDS011;10326;53.660;10.200;2024-03-23T02:04:19;14.20;;;3.88;;
20336;SDS011;10326;53.660;10.200;2024-03-23T02:06:45;15.32;;;4.53;;
20336;SDS011;10326;53.660;10.200;2024-03-23T02:09:13;18.27;;;4.40;;
20336;SDS011;10326;53.660;10.200;2024-03-23T02:11:40;15.48;;;4.63;;
20336;SDS011;10326;53.660;10.200;2024-03-23T02:14:07;17.38;;;4.35;;
20336;SDS011;10326;53.660;10.200;2024-03-23T02:16:33;19.52;;;4.90;;
20336;SDS011;10326;53.660;10.200;2024-03-23T02:19:00;20.27;;;5.10;;
20336;SDS011;10326;53.660;10.200;2024-03-23T02:21:27;16.67;;;4.00;;
20336;SDS011;10326;53.660;10.200;2024-03-23T02:23:59;14.82;;;4.63;;
20336;SDS011;10326;53.660;10.200;2024-03-23T02:26:25;17.38;;;4.18;;
20336;SDS011;10326;53.660;10.200;2024-03-23T02:28:52;18.38;;;4.50;;
20336;SDS011;10326;53.660;10.200;2024-03-23T02:31:18;18.42;;;4.65;;
20336;SDS011;10326;53.660;10.200;2024-03-23T02:33:45;16.85;;;4.45;;
20336;SDS011;10326;53.660;10.200;2024-03-23T02:36:11;13.95;;;4.05;;
20336;SDS011;10326;53.660;10.200;2024-03-23T02:38:38;16.58;;;4.22;;
20336;SDS011;10326;53.660;10.200;2024-03-23T02:41:05;15.50;;;4.63;;
20336;SDS011;10326;53.660;10.200;2024-03-23T02:43:32;15.65;;;4.57;;
20336;SDS011;10326;53.660;10.200;2024-03-23T02:45:58;13.82;;;4.35;;
20336;SDS011;10326;53.660;10.200;2024-03-23T02:48:26;15.02;;;4.40;;
20336;SDS011;10326;53.660;10.200;2024-03-23T02:50:53;18.40;;;4.55;;
20336;SDS011;10326;53.660;10.200;2024-03-23T02:53:19;15.55;;;5.28;;
20336;SDS011;10326;53.660;10.200;2024-03-23T02:55:46;19.38;;;4.97;;
20336;SDS011;10326;53.660;10.200;2024-03-23T02:58:14;15.00;;;4.22;;
20336;SDS011;10326;53.660;10.200;2024-03-23T03:00:40;19.20;;;4.32;;
20336;SDS011;10326;53.660;10.200;2024-03-23T03:03:07;17.25;;;4.00;;
20336;SDS011;10326;53.660;10.200;2024-03-23T03:05:34;12.30;;;3.67;;
20336;SDS011;10326;53.660;10.200;2024-03-23T03:08:01;17.35;;;4.30;;
20336;SDS011;10326;53.660;10.200;2024-03-23T03:10:27;22.55;;;4.90;;
20336;SDS011;10326;53.660;10.200;2024-03-23T03:12:54;17.23;;;4.35;;
20336;SDS011;10326;53.660;10.200;2024-03-23T03:15:21;17.83;;;4.20;;
20336;SDS011;10326;53.660;10.200;2024-03-23T03:17:48;18.75;;;4.18;;
20336;SDS011;10326;53.660;10.200;2024-03-23T03:20:14;13.02;;;3.90;;
20336;SDS011;10326;53.660;10.200;2024-03-23T03:22:42;17.65;;;4.32;;
20336;SDS011;10326;53.660;10.200;2024-03-23T03:25:09;20.05;;;4.10;;
20336;SDS011;10326;53.660;10.200;2024-03-23T03:27:36;17.23;;;4.90;;
20336;SDS011;10326;53.660;10.200;2024-03-23T03:30:02;16.73;;;4.85;;
20336;SDS011;10326;53.660;10.200;2024-03-23T03:32:32;14.88;;;4.35;;
20336;SDS011;10326;53.660;10.200;2024-03-23T03:34:58;13.70;;;3.67;;
20336;SDS011;10326;53.660;10.200;2024-03-23T03:37:25;16.58;;;4.43;;
20336;SDS011;10326;53.660;10.200;2024-03-23T03:39:51;17.00;;;4.57;;
20336;SDS011;10326;53.660;10.200;2024-03-23T03:42:18;16.75;;;4.00;;
20336;SDS011;10326;53.660;10.200;2024-03-23T03:44:44;16.45;;;4.28;;
20336;SDS011;10326;53.660;10.200;2024-03-23T03:47:10;13.43;;;4.13;;
20336;SDS011;10326;53.660;10.200;2024-03-23T03:49:38;14.48;;;4.30;;
20336;SDS011;10326;53.660;10.200;2024-03-23T03:52:05;19.60;;;5.05;;
20336;SDS011;10326;53.660;10.200;2024-03-23T03:54:32;15.98;;;4.45;;
20336;SDS011;10326;53.660;10.200;2024-03-23T03:56:59;16.45;;;4.60;;
20336;SDS011;10326;53.660;10.200;2024-03-23T03:59:25;19.73;;;4.53;;
20336;SDS011;10326;53.660;10.200;2024-03-23T04:01:52;16.92;;;4.55;;
20336;SDS011;10326;53.660;10.200;2024-03-23T04:04:18;14.07;;;3.95;;
20336;SDS011;10326;53.660;10.200;2024-03-23T04:06:47;16.20;;;3.78;;
20336;SDS011;10326;53.660;10.200;2024-03-23T04:09:13;15.25;;;4.35;;
20336;SDS011;10326;53.660;10.200;2024-03-23T04:11:40;12.95;;;3.78;;
20336;SDS011;10326;53.660;10.200;2024-03-23T04:14:06;14.07;;;3.78;;
20336;SDS011;10326;53.660;10.200;2024-03-23T04:16:33;19.98;;;4.43;;
20336;SDS011;10326;53.660;10.200;2024-03-23T04:19:00;16.50;;;3.78;;
20336;SDS011;10326;53.660;10.200;2024-03-23T04:21:27;15.05;;;3.90;;
20336;SDS011;10326;53.660;10.200;2024-03-23T04:23:54;16.20;;;4.72;;
20336;SDS011;10326;53.660;10.200;2024-03-23T04:26:21;16.45;;;3.90;;
20336;SDS011;10326;53.660;10.200;2024-03-23T04:28:47;15.60;;;3.90;;
20336;SDS011;10326;53.660;10.200;2024-03-23T04:31:14;16.33;;;4.35;;
20336;SDS011;10326;53.660;10.200;2024-03-23T04:33:40;15.25;;;5.90;;
20336;SDS011;10326;53.660;10.200;2024-03-23T04:36:07;13.73;;;4.68;;
20336;SDS011;10326;53.660;10.200;2024-03-23T04:38:35;18.95;;;4.70;;
20336;SDS011;10326;53.660;10.200;2024-03-23T04:41:03;14.85;;;4.30;;
20336;SDS011;10326;53.660;10.200;2024-03-23T04:43:30;13.10;;;3.75;;
20336;SDS011;10326;53.660;10.200;2024-03-23T04:45:57;14.13;;;4.07;;
20336;SDS011;10326;53.660;10.200;2024-03-23T04:48:24;15.57;;;4.05;;
20336;SDS011;10326;53.660;10.200;2024-03-23T04:50:54;16.08;;;3.85;;
20336;SDS011;10326;53.660;10.200;2024-03-23T04:53:22;15.52;;;3.75;;
20336;SDS011;10326;53.660;10.200;2024-03-23T04:55:54;15.35;;;3.88;;
20336;SDS011;10326;53.660;10.200;2024-03-23T04:58:22;14.93;;;3.65;;
20336;SDS011;10326;53.660;10.200;2024-03-23T05:00:52;13.95;;;4.22;;
20336;SDS011;10326;53.660;10.200;2024-03-23T05:03:19;16.88;;;4.10;;
20336;SDS011;10326;53.660;10.200;2024-03-23T05:05:47;16.38;;;4.53;;
20336;SDS011;10326;53.660;10.200;2024-03-23T05:08:13;17.10;;;4.78;;
20336;SDS011;10326;53.660;10.200;2024-03-23T05:10:41;18.02;;;4.25;;
20336;SDS011;10326;53.660;10.200;2024-03-23T05:13:07;12.38;;;4.18;;
20336;SDS011;10326;53.660;10.200;2024-03-23T05:15:35;14.70;;;3.90;;
20336;SDS011;10326;53.660;10.200;2024-03-23T05:18:01;12.18;;;3.47;;
20336;SDS011;10326;53.660;10.200;2024-03-23T05:20:29;14.32;;;4.07;;
20336;SDS011;10326;53.660;10.200;2024-03-23T05:22:55;19.55;;;5.20;;
20336;SDS011;10326;53.660;10.200;2024-03-23T05:25:21;16.00;;;4.20;;
20336;SDS011;10326;53.660;10.200;2024-03-23T05:27:47;12.93;;;3.95;;
20336;SDS011;10326;53.660;10.200;2024-03-23T05:30:15;12.20;;;3.55;;
20336;SDS011;10326;53.660;10.200;2024-03-23T05:32:42;17.83;;;4.20;;
20336;SDS011;10326;53.660;10.200;2024-03-23T05:35:10;13.45;;;3.83;;
20336;SDS011;10326;53.660;10.200;2024-03-23T05:37:37;13.82;;;4.15;;
20336;SDS011;10326;53.660;10.200;2024-03-23T05:40:04;12.45;;;4.10;;
20336;SDS011;10326;53.660;10.200;2024-03-23T05:42:33;12.90;;;3.67;;
20336;SDS011;10326;53.660;10.200;2024-03-23T05:45:00;14.75;;;4.38;;
20336;SDS011;10326;53.660;10.200;2024-03-23T05:47:26;17.10;;;4.10;;
20336;SDS011;10326;53.660;10.200;2024-03-23T05:49:55;15.32;;;3.72;;
20336;SDS011;10326;53.660;10.200;2024-03-23T05:52:21;11.57;;;3.95;;
20336;SDS011;10326;53.660;10.200;2024-03-23T05:54:50;10.98;;;3.72;;
20336;SDS011;10326;53.660;10.200;2024-03-23T05:57:16;16.65;;;3.67;;
20336;SDS011;10326;53.660;10.200;2024-03-23T05:59:44;16.38;;;4.03;;
20336;SDS011;10326;53.660;10.200;2024-03-23T06:02:10;13.43;;;3.70;;
20336;SDS011;10326;53.660;10.200;2024-03-23T06:04:37;14.65;;;3.97;;
20336;SDS011;10326;53.660;10.200;2024-03-23T06:07:04;10.98;;;4.03;;
20336;SDS011;10326;53.660;10.200;2024-03-23T06:09:35;13.68;;;3.53;;
20336;SDS011;10326;53.660;10.200;2024-03-23T06:12:00;14.18;;;3.50;;
20336;SDS011;10326;53.660;10.200;2024-03-23T06:14:28;12.98;;;3.92;;
20336;SDS011;10326;53.660;10.200;2024-03-23T06:16:54;14.85;;;3.70;;
20336;SDS011;10326;53.660;10.200;2024-03-23T06:19:21;11.18;;;4.20;;
20336;SDS011;10326;53.660;10.200;2024-03-23T06:21:47;15.38;;;4.22;;
20336;SDS011;10326;53.660;10.200;2024-03-23T06:24:15;13.48;;;3.72;;
20336;SDS011;10326;53.660;10.200;2024-03-23T06:26:41;13.38;;;3.72;;
20336;SDS011;10326;53.660;10.200;2024-03-23T06:29:08;11.98;;;3.35;;
20336;SDS011;10326;53.660;10.200;2024-03-23T06:31:34;14.95;;;3.75;;
20336;SDS011;10326;53.660;10.200;2024-03-23T06:34:01;14.05;;;3.97;;
20336;SDS011;10326;53.660;10.200;2024-03-23T06:36:27;16.48;;;4.63;;
20336;SDS011;10326;53.660;10.200;2024-03-23T06:38:55;17.65;;;4.20;;
20336;SDS011;10326;53.660;10.200;2024-03-23T06:41:22;10.30;;;3.65;;
20336;SDS011;10326;53.660;10.200;2024-03-23T06:43:50;13.07;;;3.42;;
20336;SDS011;10326;53.660;10.200;2024-03-23T06:46:16;13.23;;;3.67;;
20336;SDS011;10326;53.660;10.200;2024-03-23T06:48:44;14.93;;;4.07;;
20336;SDS011;10326;53.660;10.200;2024-03-23T06:51:10;15.85;;;3.90;;
20336;SDS011;10326;53.660;10.200;2024-03-23T06:53:37;14.25;;;3.72;;
20336;SDS011;10326;53.660;10.200;2024-03-23T06:56:03;15.60;;;3.72;;
20336;SDS011;10326;53.660;10.200;2024-03-23T06:58:35;14.55;;;4.45;;
20336;SDS011;10326;53.660;10.200;2024-03-23T07:01:01;15.73;;;3.83;;
20336;SDS011;10326;53.660;10.200;2024-03-23T07:03:28;15.50;;;3.60;;
20336;SDS011;10326;53.660;10.200;2024-03-23T07:05:57;17.30;;;3.90;;
20336;SDS011;10326;53.660;10.200;2024-03-23T07:08:24;16.75;;;4.50;;
20336;SDS011;10326;53.660;10.200;2024-03-23T07:10:50;13.32;;;4.13;;
20336;SDS011;10326;53.660;10.200;2024-03-23T07:13:18;16.08;;;4.50;;
20336;SDS011;10326;53.660;10.200;2024-03-23T07:15:49;9.93;;;3.38;;
20336;SDS011;10326;53.660;10.200;2024-03-23T07:18:18;14.88;;;3.90;;
20336;SDS011;10326;53.660;10.200;2024-03-23T07:20:51;15.75;;;4.20;;
20336;SDS011;10326;53.660;10.200;2024-03-23T07:23:19;13.73;;;3.55;;
20336;SDS011;10326;53.660;10.200;2024-03-23T07:25:45;14.63;;;3.28;;
20336;SDS011;10326;53.660;10.200;2024-03-23T07:28:23;15.23;;;4.20;;
20336;SDS011;10326;53.660;10.200;2024-03-23T07:30:59;13.63;;;4.00;;
20336;SDS011;10326;53.660;10.200;2024-03-23T07:33:30;16.23;;;3.95;;
20336;SDS011;10326;53.660;10.200;2024-03-23T07:35:57;17.77;;;4.43;;
20336;SDS011;10326;53.660;10.200;2024-03-23T07:38:26;19.35;;;4.38;;
20336;SDS011;10326;53.660;10.200;2024-03-23T07:41:01;10.40;;;3.70;;
20336;SDS011;10326;53.660;10.200;2024-03-23T07:43:30;14.18;;;3.65;;
20336;SDS011;10326;53.660;10.200;2024-03-23T07:45:56;16.25;;;4.28;;
20336;SDS011;10326;53.660;10.200;2024-03-23T07:48:24;13.15;;;4.03;;
20336;SDS011;10326;53.660;10.200;2024-03-23T07:51:00;14.13;;;4.30;;
20336;SDS011;10326;53.660;10.200;2024-03-23T07:53:29;16.15;;;4.45;;
20336;SDS011;10326;53.660;10.200;2024-03-23T07:55:56;12.85;;;3.63;;
20336;SDS011;10326;53.660;10.200;2024-03-23T07:58:24;14.45;;;4.03;;
20336;SDS011;10326;53.660;10.200;2024-03-23T08:00:51;13.60;;;3.80;;
20336;SDS011;10326;53.660;10.200;2024-03-23T08:03:19;13.48;;;3.97;;
20336;SDS011;10326;53.660;10.200;2024-03-23T08:05:46;13.43;;;3.83;;
20336;SDS011;10326;53.660;10.200;2024-03-23T08:08:13;15.77;;;3.92;;
20336;SDS011;10326;53.660;10.200;2024-03-23T08:10:47;11.48;;;3.55;;
20336;SDS011;10326;53.660;10.200;2024-03-23T08:13:15;15.10;;;4.25;;
20336;SDS011;10326;53.660;10.200;2024-03-23T08:15:41;16.23;;;4.38;;
20336;SDS011;10326;53.660;10.200;2024-03-23T08:18:09;13.82;;;3.85;;
20336;SDS011;10326;53.660;10.200;2024-03-23T08:20:35;14.60;;;3.85;;
20336;SDS011;10326;53.660;10.200;2024-03-23T08:23:04;11.57;;;3.60;;
20336;SDS011;10326;53.660;10.200;2024-03-23T08:25:31;12.45;;;3.60;;
20336;SDS011;10326;53.660;10.200;2024-03-23T08:27:58;12.02;;;3.13;;
20336;SDS011;10326;53.660;10.200;2024-03-23T08:30:25;14.52;;;3.60;;
20336;SDS011;10326;53.660;10.200;2024-03-23T08:32:52;12.52;;;4.13;;
20336;SDS011;10326;53.660;10.200;2024-03-23T08:35:18;14.48;;;3.60;;
20336;SDS011;10326;53.660;10.200;2024-03-23T08:37:45;11.27;;;3.50;;
20336;SDS011;10326;53.660;10.200;2024-03-23T08:40:13;10.65;;;4.00;;
20336;SDS011;10326;53.660;10.200;2024-03-23T08:42:40;15.02;;;3.83;;
20336;SDS011;10326;53.660;10.200;2024-03-23T08:45:06;11.75;;;3.60;;
20336;SDS011;10326;53.660;10.200;2024-03-23T08:47:34;15.82;;;4.10;;
20336;SDS011;10326;53.660;10.200;2024-03-23T08:50:01;12.35;;;4.20;;
20336;SDS011;10326;53.660;10.200;2024-03-23T08:52:28;18.13;;;3.75;;
20336;SDS011;10326;53.660;10.200;2024-03-23T08:54:54;11.93;;;3.47;;
20336;SDS011;10326;53.660;10.200;2024-03-23T08:57:23;15.32;;;3.75;;
20336;SDS011;10326;53.660;10.200;2024-03-23T08:59:49;14.27;;;3.83;;
20336;SDS011;10326;53.660;10.200;2024-03-23T09:02:16;10.90;;;3.22;;
20336;SDS011;10326;53.660;10.200;2024-03-23T09:04:42;9.63;;;2.35;;
20336;SDS011;10326;53.660;10.200;2024-03-23T09:07:10;9.88;;;3.15;;
20336;SDS011;10326;53.660;10.200;2024-03-23T09:09:37;10.93;;;2.97;;
20336;SDS011;10326;53.660;10.200;2024-03-23T09:12:05;10.20;;;2.88;;
20336;SDS011;10326;53.660;10.200;2024-03-23T09:14:33;12.88;;;3.88;;
20336;SDS011;10326;53.660;10.200;2024-03-23T09:17:00;11.30;;;3.03;;
20336;SDS011;10326;53.660;10.200;2024-03-23T09:19:27;11.68;;;3.33;;
20336;SDS011;10326;53.660;10.200;2024-03-23T09:21:54;8.88;;;2.85;;
20336;SDS011;10326;53.660;10.200;2024-03-23T09:24:21;12.95;;;3.55;;
20336;SDS011;10326;53.660;10.200;2024-03-23T09:26:48;11.68;;;3.65;;
20336;SDS011;10326;53.660;10.200;2024-03-23T09:29:14;11.20;;;3.10;;
20336;SDS011;10326;53.660;10.200;2024-03-23T09:31:42;8.98;;;2.88;;
20336;SDS011;10326;53.660;10.200;2024-03-23T09:34:08;9.68;;;2.97;;
20336;SDS011;10326;53.660;10.200;2024-03-23T09:36:35;8.30;;;2.50;;
20336;SDS011;10326;53.660;10.200;2024-03-23T09:39:01;9.30;;;2.78;;
20336;SDS011;10326;53.660;10.200;2024-03-23T09:41:30;8.45;;;3.08;;
20336;SDS011;10326;53.660;10.200;2024-03-23T09:43:56;10.85;;;2.85;;
20336;SDS011;10326;53.660;10.200;2024-03-23T09:46:23;8.35;;;2.85;;
20336;SDS011;10326;53.660;10.200;2024-03-23T09:48:51;8.93;;;2.70;;
20336;SDS011;10326;53.660;10.200;2024-03-23T09:51:18;8.70;;;2.60;;
20336;SDS011;10326;53.660;10.200;2024-03-23T09:53:44;10.48;;;2.90;;
20336;SDS011;10326;53.660;10.200;2024-03-23T09:56:11;7.53;;;2.67;;
20336;SDS011;10326;53.660;10.200;2024-03-23T09:58:37;9.75;;;2.42;;
20336;SDS011;10326;53.660;10.200;2024-03-23T10:01:05;8.65;;;2.70;;
20336;SDS011;10326;53.660;10.200;2024-03-23T10:03:41;8.35;;;2.35;;
20336;SDS011;10326;53.660;10.200;2024-03-23T10:06:11;7.15;;;2.30;;
20336;SDS011;10326;53.660;10.200;2024-03-23T10:08:37;8.15;;;2.20;;
20336;SDS011;10326;53.660;10.200;2024-03-23T10:11:14;9.77;;;2.78;;
20336;SDS011;10326;53.660;10.200;2024-03-23T10:13:42;8.02;;;2.40;;
20336;SDS011;10326;53.660;10.200;2024-03-23T10:16:11;6.43;;;2.40;;
20336;SDS011;10326;53.660;10.200;2024-03-23T10:18:38;7.28;;;2.58;;
20336;SDS011;10326;53.660;10.200;2024-03-23T10:21:09;9.48;;;2.35;;
20336;SDS011;10326;53.660;10.200;2024-03-23T10:23:37;7.45;;;2.50;;
20336;SDS011;10326;53.660;10.200;2024-03-23T10:26:13;8.45;;;2.10;;
20336;SDS011;10326;53.660;10.200;2024-03-23T10:28:51;8.23;;;2.58;;
20336;SDS011;10326;53.660;10.200;2024-03-23T10:31:20;6.72;;;2.03;;
20336;SDS011;10326;53.660;10.200;2024-03-23T10:33:46;6.82;;;1.88;;
20336;SDS011;10326;53.660;10.200;2024-03-23T10:36:16;5.75;;;2.08;;
20336;SDS011;10326;53.660;10.200;2024-03-23T10:38:46;8.07;;;2.50;;
20336;SDS011;10326;53.660;10.200;2024-03-23T10:41:14;7.18;;;2.10;;
20336;SDS011;10326;53.660;10.200;2024-03-23T10:43:40;9.30;;;2.58;;
20336;SDS011;10326;53.660;10.200;2024-03-23T10:46:11;7.50;;;2.65;;
20336;SDS011;10326;53.660;10.200;2024-03-23T10:48:37;9.13;;;2.95;;
20336;SDS011;10326;53.660;10.200;2024-03-23T10:51:05;9.55;;;2.78;;
20336;SDS011;10326;53.660;10.200;2024-03-23T10:53:35;6.07;;;2.25;;
20336;SDS011;10326;53.660;10.200;2024-03-23T10:56:04;7.05;;;2.10;;
20336;SDS011;10326;53.660;10.200;2024-03-23T10:58:31;6.93;;;2.08;;
20336;SDS011;10326;53.660;10.200;2024-03-23T11:01:08;8.00;;;2.10;;
20336;SDS011;10326;53.660;10.200;2024-03-23T11:03:37;5.60;;;2.08;;
20336;SDS011;10326;53.660;10.200;2024-03-23T11:06:06;5.63;;;1.95;;
20336;SDS011;10326;53.660;10.200;2024-03-23T11:08:35;7.82;;;2.53;;
20336;SDS011;10326;53.660;10.200;2024-03-23T11:13:56;7.20;;;1.80;;
20336;SDS011;10326;53.660;10.200;2024-03-23T11:16:26;5.88;;;1.67;;
20336;SDS011;10326;53.660;10.200;2024-03-23T11:19:32;7.22;;;2.00;;
20336;SDS011;10326;53.660;10.200;2024-03-23T11:22:01;6.20;;;2.28;;
20336;SDS011;10326;53.660;10.200;2024-03-23T11:24:29;8.25;;;2.10;;
20336;SDS011;10326;53.660;10.200;2024-03-23T11:26:57;6.70;;;1.67;;
20336;SDS011;10326;53.660;10.200;2024-03-23T11:29:25;6.50;;;1.98;;
20336;SDS011;10326;53.660;10.200;2024-03-23T11:31:55;6.55;;;1.98;;
20336;SDS011;10326;53.660;10.200;2024-03-23T11:34:24;6.43;;;1.92;;
20336;SDS011;10326;53.660;10.200;2024-03-23T11:36:58;3.67;;;1.52;;
20336;SDS011;10326;53.660;10.200;2024-03-23T11:39:31;4.97;;;1.75;;
20336;SDS011;10326;53.660;10.200;2024-03-23T11:41:58;4.80;;;1.63;;
20336;SDS011;10326;53.660;10.200;2024-03-23T11:44:26;5.50;;;1.70;;
20336;SDS011;10326;53.660;10.200;2024-03-23T11:46:54;6.60;;;1.70;;
20336;SDS011;10326;53.660;10.200;2024-03-23T11:49:34;5.60;;;1.90;;
20336;SDS011;10326;53.660;10.200;2024-03-23T11:52:05;3.83;;;1.77;;
20336;SDS011;10326;53.660;10.200;2024-03-23T11:54:34;4.80;;;1.30;;
20336;SDS011;10326;53.660;10.200;2024-03-23T11:57:02;4.00;;;2.00;;
20336;SDS011;10326;53.660;10.200;2024-03-23T11:59:33;5.20;;;2.10;;
20336;SDS011;10326;53.660;10.200;2024-03-23T12:02:05;5.00;;;1.70;;
20336;SDS011;10326;53.660;10.200;2024-03-23T12:04:32;4.05;;;1.20;;
20336;SDS011;10326;53.660;10.200;2024-03-23T12:07:11;5.28;;;2.00;;
20336;SDS011;10326;53.660;10.200;2024-03-23T12:09:39;4.03;;;1.45;;
20336;SDS011;10326;53.660;10.200;2024-03-23T12:12:10;3.50;;;1.30;;
20336;SDS011;10326;53.660;10.200;2024-03-23T12:14:40;3.10;;;1.13;;
20336;SDS011;10326;53.660;10.200;2024-03-23T12:17:09;2.95;;;1.05;;
20336;SDS011;10326;53.660;10.200;2024-03-23T12:19:36;2.92;;;0.93;;
20336;SDS011;10326;53.660;10.200;2024-03-23T12:22:04;1.27;;;0.65;;
20336;SDS011;10326;53.660;10.200;2024-03-23T12:24:30;2.85;;;1.00;;
20336;SDS011;10326;53.660;10.200;2024-03-23T12:27:01;2.22;;;0.68;;
20336;SDS011;10326;53.660;10.200;2024-03-23T12:29:28;2.47;;;1.00;;
20336;SDS011;10326;53.660;10.200;2024-03-23T12:31:56;1.27;;;0.90;;
20336;SDS011;10326;53.660;10.200;2024-03-23T12:34:25;2.47;;;0.80;;
20336;SDS011;10326;53.660;10.200;2024-03-23T12:36:54;1.95;;;1.08;;
20336;SDS011;10326;53.660;10.200;2024-03-23T12:39:20;2.47;;;1.00;;
20336;SDS011;10326;53.660;10.200;2024-03-23T12:41:48;3.30;;;1.10;;
20336;SDS011;10326;53.660;10.200;2024-03-23T12:45:20;2.17;;;0.90;;
20336;SDS011;10326;53.660;10.200;2024-03-23T12:47:46;2.00;;;1.30;;
20336;SDS011;10326;53.660;10.200;2024-03-23T12:50:13;3.10;;;1.17;;
20336;SDS011;10326;53.660;10.200;2024-03-23T12:52:39;3.67;;;1.15;;
20336;SDS011;10326;53.660;10.200;2024-03-23T12:55:07;1.63;;;0.98;;
20336;SDS011;10326;53.660;10.200;2024-03-23T12:57:33;1.63;;;0.93;;
20336;SDS011;10326;53.660;10.200;2024-03-23T13:00:04;2.22;;;1.00;;
20336;SDS011;10326;53.660;10.200;2024-03-23T13:02:50;2.03;;;0.93;;
20336;SDS011;10326;53.660;10.200;2024-03-23T13:05:17;1.38;;;0.75;;
20336;SDS011;10326;53.660;10.200;2024-03-23T13:07:43;1.13;;;0.82;;
20336;SDS011;10326;53.660;10.200;2024-03-23T13:10:16;3.15;;;1.13;;
20336;SDS011;10326;53.660;10.200;2024-03-23T13:12:46;1.92;;;0.50;;
20336;SDS011;10326;53.660;10.200;2024-03-23T13:15:19;2.05;;;0.77;;
20336;SDS011;10326;53.660;10.200;2024-03-23T13:17:48;1.48;;;1.02;;
20336;SDS011;10326;53.660;10.200;2024-03-23T13:20:25;1.52;;;0.80;;
20336;SDS011;10326;53.660;10.200;2024-03-23T13:23:06;2.55;;;1.88;;
20336;SDS011;10326;53.660;10.200;2024-03-23T13:25:40;2.83;;;1.10;;
20336;SDS011;10326;53.660;10.200;2024-03-23T13:28:06;1.58;;;0.80;;
20336;SDS011;10326;53.660;10.200;2024-03-23T13:30:34;0.80;;;0.80;;
20336;SDS011;10326;53.660;10.200;2024-03-23T13:33:02;1.05;;;0.77;;
20336;SDS011;10326;53.660;10.200;2024-03-23T13:35:29;1.45;;;0.80;;
20336;SDS011;10326;53.660;10.200;2024-03-23T13:37:56;1.08;;;1.00;;
20336;SDS011;10326;53.660;10.200;2024-03-23T13:40:23;1.35;;;0.90;;
20336;SDS011;10326;53.660;10.200;2024-03-23T13:43:16;1.88;;;0.90;;
20336;SDS011;10326;53.660;10.200;2024-03-23T13:45:52;2.95;;;1.17;;
20336;SDS011;10326;53.660;10.200;2024-03-23T13:48:21;3.60;;;1.60;;
20336;SDS011;10326;53.660;10.200;2024-03-23T13:50:56;2.47;;;1.25;;
20336;SDS011;10326;53.660;10.200;2024-03-23T13:54:01;2.83;;;1.13;;
20336;SDS011;10326;53.660;10.200;2024-03-23T13:56:30;2.00;;;1.00;;
20336;SDS011;10326;53.660;10.200;2024-03-23T13:59:14;2.20;;;1.20;;
20336;SDS011;10326;53.660;10.200;2024-03-23T14:01:42;2.00;;;1.23;;
20336;SDS011;10326;53.660;10.200;2024-03-23T14:04:10;1.75;;;1.05;;
20336;SDS011;10326;53.660;10.200;2024-03-23T14:13:19;2.33;;;0.80;;
20336;SDS011;10326;53.660;10.200;2024-03-23T14:15:46;1.92;;;1.10;;
20336;SDS011;10326;53.660;10.200;2024-03-23T14:18:17;2.67;;;1.10;;
20336;SDS011;10326;53.660;10.200;2024-03-23T14:20:47;4.03;;;1.10;;
20336;SDS011;10326;53.660;10.200;2024-03-23T14:23:13;1.83;;;0.95;;
20336;SDS011;10326;53.660;10.200;2024-03-23T14:25:41;2.50;;;1.30;;
20336;SDS011;10326;53.660;10.200;2024-03-23T14:28:07;3.03;;;1.25;;
20336;SDS011;10326;53.660;10.200;2024-03-23T14:30:39;3.35;;;1.45;;
20336;SDS011;10326;53.660;10.200;2024-03-23T14:41:16;4.70;;;1.70;;
20336;SDS011;10326;53.660;10.200;2024-03-23T14:43:43;2.22;;;1.13;;
20336;SDS011;10326;53.660;10.200;2024-03-23T14:46:09;3.28;;;1.30;;
20336;SDS011;10326;53.660;10.200;2024-03-23T14:48:38;3.13;;;1.33;;
20336;SDS011;10326;53.660;10.200;2024-03-23T14:51:05;4.93;;;1.50;;
20336;SDS011;10326;53.660;10.200;2024-03-23T14:53:33;6.50;;;1.60;;
20336;SDS011;10326;53.660;10.200;2024-03-23T14:56:00;3.67;;;1.13;;
20336;SDS011;10326;53.660;10.200;2024-03-23T14:58:29;4.53;;;1.42;;
20336;SDS011;10326;53.660;10.200;2024-03-23T15:00:59;3.58;;;1.60;;
20336;SDS011;10326;53.660;10.200;2024-03-23T15:03:27;4.32;;;1.90;;
20336;SDS011;10326;53.660;10.200;2024-03-23T15:05:55;8.57;;;3.50;;
20336;SDS011;10326;53.660;10.200;2024-03-23T15:08:23;5.07;;;2.22;;
20336;SDS011;10326;53.660;10.200;2024-03-23T15:10:49;3.97;;;2.15;;
20336;SDS011;10326;53.660;10.200;2024-03-23T15:13:17;4.03;;;1.60;;
20336;SDS011;10326;53.660;10.200;2024-03-23T15:15:47;5.07;;;2.03;;
20336;SDS011;10326;53.660;10.200;2024-03-23T15:18:17;3.92;;;1.65;;
20336;SDS011;10326;53.660;10.200;2024-03-23T15:21:18;3.75;;;1.98;;
20336;SDS011;10326;53.660;10.200;2024-03-23T15:23:47;2.03;;;1.15;;
20336;SDS011;10326;53.660;10.200;2024-03-23T15:26:19;2.40;;;1.48;;
20336;SDS011;10326;53.660;10.200;2024-03-23T15:28:47;1.77;;;1.10;;
20336;SDS011;10326;53.660;10.200;2024-03-23T15:42:06;2.88;;;1.10;;
20336;SDS011;10326;53.660;10.200;2024-03-23T15:44:33;2.30;;;1.10;;
20336;SDS011;10326;53.660;10.200;2024-03-23T15:47:06;2.30;;;0.85;;
20336;SDS011;10326;53.660;10.200;2024-03-23T15:50:26;1.85;;;0.90;;
20336;SDS011;10326;53.660;10.200;2024-03-23T15:53:01;1.77;;;0.90;;
20336;SDS011;10326;53.660;10.200;2024-03-23T15:55:29;3.22;;;0.80;;
20336;SDS011;10326;53.660;10.200;2024-03-23T16:01:31;4.45;;;1.50;;